sensor_id;sensor_type;location;lat;lon;timestamp;pressure;altitude;pressure_sealevel;temperature;humidity
61900;BME280;47853;55.890;37.664;2023-01-25T00:01:56;100813.50;;;1.09;100.00
61900;BME280;47853;55.890;37.664;2023-01-25T00:04:25;100820.78;;;1.41;100.00
61900;BME280;47853;55.890;37.664;2023-01-25T00:06:50;100817.03;;;1.08;100.00
61900;BME280;47853;55.890;37.664;2023-01-25T00:09:16;100810.38;;;0.82;100.00
61900;BME280;47853;55.890;37.664;2023-01-25T00:11:42;100813.25;;;0.56;100.00
61900;BME280;47853;55.890;37.664;2023-01-25T00:14:09;100823.66;;;0.58;100.00
61900;BME280;47853;55.890;37.664;2023-01-25T00:16:35;100816.88;;;0.54;100.00
61900;BME280;47853;55.890;37.664;2023-01-25T00:19:00;100806.84;;;1.21;100.00
61900;BME280;47853;55.890;37.664;2023-01-25T00:21:26;100822.66;;;1.00;100.00
61900;BME280;47853;55.890;37.664;2023-01-25T00:23:52;100794.19;;;0.74;100.00
61900;BME280;47853;55.890;37.664;2023-01-25T00:26:18;100788.28;;;0.09;100.00
61900;BME280;47853;55.890;37.664;2023-01-25T00:28:51;100786.38;;;0.13;100.00
61900;BME280;47853;55.890;37.664;2023-01-25T00:31:40;100778.91;;;0.05;100.00
61900;BME280;47853;55.890;37.664;2023-01-25T00:37:13;100782.00;;;-0.07;100.00
61900;BME280;47853;55.890;37.664;2023-01-25T00:39:42;100770.78;;;0.11;100.00
61900;BME280;47853;55.890;37.664;2023-01-25T00:42:12;100777.75;;;0.32;100.00
61900;BME280;47853;55.890;37.664;2023-01-25T00:44:38;100771.38;;;0.58;100.00
61900;BME280;47853;55.890;37.664;2023-01-25T00:47:04;100774.44;;;0.68;100.00
61900;BME280;47853;55.890;37.664;2023-01-25T00:49:30;100747.34;;;0.50;100.00
61900;BME280;47853;55.890;37.664;2023-01-25T00:51:56;100776.56;;;0.18;100.00
61900;BME280;47853;55.890;37.664;2023-01-25T00:54:21;100768.91;;;-0.06;100.00
61900;BME280;47853;55.890;37.664;2023-01-25T00:56:47;100758.56;;;0.33;100.00
61900;BME280;47853;55.890;37.664;2023-01-25T00:59:13;100761.06;;;0.55;100.00
61900;BME280;47853;55.890;37.664;2023-01-25T01:01:42;100771.16;;;0.82;100.00
61900;BME280;47853;55.890;37.664;2023-01-25T01:04:07;100757.66;;;0.53;100.00
61900;BME280;47853;55.890;37.664;2023-01-25T01:06:37;100751.66;;;0.70;100.00
61900;BME280;47853;55.890;37.664;2023-01-25T01:09:05;100756.50;;;0.39;100.00
61900;BME280;47853;55.890;37.664;2023-01-25T01:11:31;100748.75;;;0.38;100.00
61900;BME280;47853;55.890;37.664;2023-01-25T01:13:59;100749.78;;;0.34;100.00
61900;BME280;47853;55.890;37.664;2023-01-25T01:16:25;100753.16;;;0.17;100.00
61900;BME280;47853;55.890;37.664;2023-01-25T01:18:50;100739.19;;;0.37;100.00
61900;BME280;47853;55.890;37.664;2023-01-25T01:21:16;100710.25;;;0.22;100.00
61900;BME280;47853;55.890;37.664;2023-01-25T01:23:41;100737.81;;;0.68;100.00
61900;BME280;47853;55.890;37.664;2023-01-25T01:26:10;100735.41;;;0.82;100.00
61900;BME280;47853;55.890;37.664;2023-01-25T01:28:36;100725.81;;;0.45;100.00
61900;BME280;47853;55.890;37.664;2023-01-25T01:31:04;100719.44;;;1.06;100.00
61900;BME280;47853;55.890;37.664;2023-01-25T01:33:30;100720.00;;;0.95;100.00
61900;BME280;47853;55.890;37.664;2023-01-25T01:35:55;100690.69;;;0.87;100.00
61900;BME280;47853;55.890;37.664;2023-01-25T01:38:21;100712.06;;;0.97;100.00
61900;BME280;47853;55.890;37.664;2023-01-25T01:40:47;100726.97;;;0.37;100.00
61900;BME280;47853;55.890;37.664;2023-01-25T01:43:20;100714.69;;;-0.01;100.00
61900;BME280;47853;55.890;37.664;2023-01-25T01:51:35;100703.53;;;-0.89;100.00
61900;BME280;47853;55.890;37.664;2023-01-25T01:54:28;100706.34;;;-0.09;100.00
61900;BME280;47853;55.890;37.664;2023-01-25T01:57:04;100669.41;;;-0.41;100.00
61900;BME280;47853;55.890;37.664;2023-01-25T02:00:24;100702.50;;;0.00;100.00
61900;BME280;47853;55.890;37.664;2023-01-25T02:02:25;100698.44;;;0.71;100.00
61900;BME280;47853;55.890;37.664;2023-01-25T02:04:52;100695.44;;;0.02;100.00
61900;BME280;47853;55.890;37.664;2023-01-25T02:07:22;100688.66;;;0.17;100.00
61900;BME280;47853;55.890;37.664;2023-01-25T02:09:50;100719.41;;;-0.09;100.00
61900;BME280;47853;55.890;37.664;2023-01-25T02:12:17;100716.53;;;0.56;100.00
61900;BME280;47853;55.890;37.664;2023-01-25T02:14:48;100716.31;;;0.80;100.00
61900;BME280;47853;55.890;37.664;2023-01-25T02:17:13;100698.84;;;0.42;100.00
61900;BME280;47853;55.890;37.664;2023-01-25T02:22:22;100716.38;;;0.01;100.00
61900;BME280;47853;55.890;37.664;2023-01-25T02:25:16;100719.41;;;-0.50;100.00
61900;BME280;47853;55.890;37.664;2023-01-25T02:28:37;100722.09;;;-0.74;100.00
61900;BME280;47853;55.890;37.664;2023-01-25T02:30:53;100712.44;;;-0.29;100.00
61900;BME280;47853;55.890;37.664;2023-01-25T02:33:26;100716.19;;;-0.16;100.00
61900;BME280;47853;55.890;37.664;2023-01-25T02:38:44;100731.69;;;-0.11;100.00
61900;BME280;47853;55.890;37.664;2023-01-25T02:41:38;100724.16;;;-0.19;100.00
61900;BME280;47853;55.890;37.664;2023-01-25T02:44:08;100737.53;;;-0.26;100.00
61900;BME280;47853;55.890;37.664;2023-01-25T02:46:36;100713.06;;;-0.45;100.00
61900;BME280;47853;55.890;37.664;2023-01-25T02:49:04;100714.97;;;-0.48;100.00
61900;BME280;47853;55.890;37.664;2023-01-25T02:51:32;100720.13;;;-0.69;100.00
61900;BME280;47853;55.890;37.664;2023-01-25T02:53:58;100718.34;;;-0.25;100.00
61900;BME280;47853;55.890;37.664;2023-01-25T02:56:25;100716.06;;;0.08;100.00
61900;BME280;47853;55.890;37.664;2023-01-25T02:58:51;100726.63;;;-0.57;100.00
61900;BME280;47853;55.890;37.664;2023-01-25T03:01:17;100710.63;;;-0.92;100.00
61900;BME280;47853;55.890;37.664;2023-01-25T03:03:42;100717.97;;;-0.57;100.00
61900;BME280;47853;55.890;37.664;2023-01-25T03:06:08;100717.44;;;-0.24;100.00
61900;BME280;47853;55.890;37.664;2023-01-25T03:08:33;100714.28;;;0.30;100.00
61900;BME280;47853;55.890;37.664;2023-01-25T03:11:01;100711.00;;;0.24;100.00
61900;BME280;47853;55.890;37.664;2023-01-25T03:13:27;100712.84;;;0.41;100.00
61900;BME280;47853;55.890;37.664;2023-01-25T03:15:58;100714.19;;;-0.09;100.00
61900;BME280;47853;55.890;37.664;2023-01-25T03:18:24;100696.53;;;0.36;100.00
61900;BME280;47853;55.890;37.664;2023-01-25T03:20:50;100694.63;;;0.78;100.00
61900;BME280;47853;55.890;37.664;2023-01-25T03:23:15;100687.09;;;0.90;100.00
61900;BME280;47853;55.890;37.664;2023-01-25T03:25:41;100693.97;;;0.92;100.00
61900;BME280;47853;55.890;37.664;2023-01-25T03:28:06;100682.19;;;1.01;100.00
61900;BME280;47853;55.890;37.664;2023-01-25T03:30:31;100689.28;;;0.99;100.00
61900;BME280;47853;55.890;37.664;2023-01-25T03:32:57;100683.69;;;0.70;100.00
61900;BME280;47853;55.890;37.664;2023-01-25T03:35:22;100688.16;;;0.09;100.00
61900;BME280;47853;55.890;37.664;2023-01-25T03:37:47;100704.38;;;-0.04;100.00
61900;BME280;47853;55.890;37.664;2023-01-25T03:40:13;100696.56;;;-0.04;100.00
61900;BME280;47853;55.890;37.664;2023-01-25T03:42:38;100694.53;;;-0.18;100.00
61900;BME280;47853;55.890;37.664;2023-01-25T03:45:04;100700.03;;;0.16;100.00
61900;BME280;47853;55.890;37.664;2023-01-25T03:47:29;100663.84;;;0.27;100.00
61900;BME280;47853;55.890;37.664;2023-01-25T03:49:55;100688.69;;;0.75;100.00
61900;BME280;47853;55.890;37.664;2023-01-25T03:52:23;100677.53;;;0.71;100.00
61900;BME280;47853;55.890;37.664;2023-01-25T03:54:48;100676.22;;;0.80;100.00
61900;BME280;47853;55.890;37.664;2023-01-25T03:57:13;100671.56;;;0.86;100.00
61900;BME280;47853;55.890;37.664;2023-01-25T03:59:39;100679.63;;;1.19;100.00
61900;BME280;47853;55.890;37.664;2023-01-25T04:02:04;100680.81;;;0.94;100.00
61900;BME280;47853;55.890;37.664;2023-01-25T04:04:29;100664.59;;;1.05;100.00
61900;BME280;47853;55.890;37.664;2023-01-25T04:06:55;100670.38;;;1.11;100.00
61900;BME280;47853;55.890;37.664;2023-01-25T04:09:20;100667.78;;;1.29;100.00
61900;BME280;47853;55.890;37.664;2023-01-25T04:11:48;100679.22;;;1.09;100.00
61900;BME280;47853;55.890;37.664;2023-01-25T04:14:14;100680.69;;;0.20;100.00
61900;BME280;47853;55.890;37.664;2023-01-25T04:16:39;100686.44;;;-0.11;100.00
61900;BME280;47853;55.890;37.664;2023-01-25T04:19:04;100687.75;;;-0.22;100.00
61900;BME280;47853;55.890;37.664;2023-01-25T04:21:30;100693.38;;;-0.31;100.00
61900;BME280;47853;55.890;37.664;2023-01-25T04:23:55;100696.38;;;-0.20;100.00
61900;BME280;47853;55.890;37.664;2023-01-25T04:26:21;100674.63;;;-0.20;100.00
61900;BME280;47853;55.890;37.664;2023-01-25T04:28:46;100688.75;;;0.16;100.00
61900;BME280;47853;55.890;37.664;2023-01-25T04:31:11;100690.66;;;0.50;100.00
61900;BME280;47853;55.890;37.664;2023-01-25T04:33:37;100694.13;;;0.12;100.00
61900;BME280;47853;55.890;37.664;2023-01-25T04:36:02;100681.88;;;0.13;100.00
61900;BME280;47853;55.890;37.664;2023-01-25T04:38:28;100688.78;;;-0.05;100.00
61900;BME280;47853;55.890;37.664;2023-01-25T04:40:55;100682.19;;;-0.35;100.00
61900;BME280;47853;55.890;37.664;2023-01-25T04:43:21;100695.66;;;-0.44;100.00
61900;BME280;47853;55.890;37.664;2023-01-25T04:45:46;100700.56;;;0.24;100.00
61900;BME280;47853;55.890;37.664;2023-01-25T04:48:12;100700.50;;;0.64;100.00
61900;BME280;47853;55.890;37.664;2023-01-25T04:50:39;100694.00;;;0.73;100.00
61900;BME280;47853;55.890;37.664;2023-01-25T04:53:06;100704.78;;;0.84;100.00
61900;BME280;47853;55.890;37.664;2023-01-25T04:55:32;100690.97;;;1.00;100.00
61900;BME280;47853;55.890;37.664;2023-01-25T04:57:58;100690.69;;;0.87;100.00
61900;BME280;47853;55.890;37.664;2023-01-25T05:00:24;100699.25;;;1.27;100.00
61900;BME280;47853;55.890;37.664;2023-01-25T05:02:49;100696.31;;;1.16;100.00
61900;BME280;47853;55.890;37.664;2023-01-25T05:05:14;100698.00;;;1.17;100.00
61900;BME280;47853;55.890;37.664;2023-01-25T05:07:43;100696.25;;;1.53;100.00
61900;BME280;47853;55.890;37.664;2023-01-25T05:10:09;100676.56;;;1.28;100.00
61900;BME280;47853;55.890;37.664;2023-01-25T05:12:34;100695.50;;;1.33;100.00
61900;BME280;47853;55.890;37.664;2023-01-25T05:14:59;100689.47;;;1.13;100.00
61900;BME280;47853;55.890;37.664;2023-01-25T05:17:25;100685.78;;;1.35;100.00
61900;BME280;47853;55.890;37.664;2023-01-25T05:19:50;100684.81;;;1.38;100.00
61900;BME280;47853;55.890;37.664;2023-01-25T05:22:17;100691.00;;;1.53;100.00
61900;BME280;47853;55.890;37.664;2023-01-25T05:24:43;100693.94;;;1.11;100.00
61900;BME280;47853;55.890;37.664;2023-01-25T05:27:08;100702.50;;;0.96;100.00
61900;BME280;47853;55.890;37.664;2023-01-25T05:29:38;100693.28;;;1.43;100.00
61900;BME280;47853;55.890;37.664;2023-01-25T05:32:16;100704.25;;;1.32;100.00
61900;BME280;47853;55.890;37.664;2023-01-25T05:34:43;100712.28;;;1.47;100.00
61900;BME280;47853;55.890;37.664;2023-01-25T05:37:11;100698.34;;;1.64;100.00
61900;BME280;47853;55.890;37.664;2023-01-25T05:39:37;100698.16;;;0.58;100.00
61900;BME280;47853;55.890;37.664;2023-01-25T05:42:03;100689.16;;;0.06;100.00
61900;BME280;47853;55.890;37.664;2023-01-25T05:44:32;100685.63;;;0.07;100.00
61900;BME280;47853;55.890;37.664;2023-01-25T05:46:57;100683.94;;;0.64;100.00
61900;BME280;47853;55.890;37.664;2023-01-25T05:49:23;100678.25;;;1.11;100.00
61900;BME280;47853;55.890;37.664;2023-01-25T05:51:48;100674.69;;;1.30;100.00
61900;BME280;47853;55.890;37.664;2023-01-25T05:54:15;100664.84;;;1.18;100.00
61900;BME280;47853;55.890;37.664;2023-01-25T05:56:42;100683.78;;;0.86;100.00
61900;BME280;47853;55.890;37.664;2023-01-25T05:59:09;100670.94;;;0.81;100.00
61900;BME280;47853;55.890;37.664;2023-01-25T06:01:35;100671.69;;;1.03;100.00
61900;BME280;47853;55.890;37.664;2023-01-25T06:04:00;100684.97;;;1.35;100.00
61900;BME280;47853;55.890;37.664;2023-01-25T06:06:25;100688.25;;;1.38;100.00
61900;BME280;47853;55.890;37.664;2023-01-25T06:08:51;100681.84;;;1.26;100.00
61900;BME280;47853;55.890;37.664;2023-01-25T06:11:20;100688.09;;;1.41;100.00
61900;BME280;47853;55.890;37.664;2023-01-25T06:13:46;100686.72;;;1.69;100.00
61900;BME280;47853;55.890;37.664;2023-01-25T06:16:11;100677.91;;;1.88;100.00
61900;BME280;47853;55.890;37.664;2023-01-25T06:18:37;100678.31;;;1.80;99.76
61900;BME280;47853;55.890;37.664;2023-01-25T06:21:03;100681.00;;;1.79;100.00
61900;BME280;47853;55.890;37.664;2023-01-25T06:23:29;100676.41;;;2.00;99.79
61900;BME280;47853;55.890;37.664;2023-01-25T06:25:59;100679.00;;;1.49;100.00
61900;BME280;47853;55.890;37.664;2023-01-25T06:28:29;100687.66;;;0.01;100.00
61900;BME280;47853;55.890;37.664;2023-01-25T06:30:54;100679.28;;;-0.27;100.00
61900;BME280;47853;55.890;37.664;2023-01-25T06:33:19;100666.91;;;-1.08;100.00
61900;BME280;47853;55.890;37.664;2023-01-25T06:35:45;100688.41;;;-1.23;100.00
61900;BME280;47853;55.890;37.664;2023-01-25T06:38:10;100683.53;;;-1.33;100.00
61900;BME280;47853;55.890;37.664;2023-01-25T06:40:35;100685.44;;;-1.38;100.00
61900;BME280;47853;55.890;37.664;2023-01-25T06:43:08;100693.06;;;-1.32;100.00
61900;BME280;47853;55.890;37.664;2023-01-25T06:45:34;100688.91;;;-1.37;100.00
61900;BME280;47853;55.890;37.664;2023-01-25T06:48:00;100703.28;;;-1.27;100.00
61900;BME280;47853;55.890;37.664;2023-01-25T06:50:28;100694.13;;;-1.37;100.00
61900;BME280;47853;55.890;37.664;2023-01-25T06:52:54;100707.88;;;-1.34;100.00
61900;BME280;47853;55.890;37.664;2023-01-25T06:55:20;100699.19;;;-1.56;100.00
61900;BME280;47853;55.890;37.664;2023-01-25T06:57:46;100696.22;;;-1.47;100.00
61900;BME280;47853;55.890;37.664;2023-01-25T07:00:12;100704.56;;;-1.37;100.00
61900;BME280;47853;55.890;37.664;2023-01-25T07:02:37;100714.63;;;-1.28;100.00
61900;BME280;47853;55.890;37.664;2023-01-25T07:05:03;100687.22;;;-1.62;100.00
61900;BME280;47853;55.890;37.664;2023-01-25T07:07:28;100704.63;;;-1.17;100.00
61900;BME280;47853;55.890;37.664;2023-01-25T07:09:54;100698.56;;;-1.63;100.00
61900;BME280;47853;55.890;37.664;2023-01-25T07:12:19;100703.66;;;-1.60;100.00
61900;BME280;47853;55.890;37.664;2023-01-25T07:14:45;100694.88;;;-1.57;100.00
61900;BME280;47853;55.890;37.664;2023-01-25T07:17:10;100691.66;;;-1.64;100.00
61900;BME280;47853;55.890;37.664;2023-01-25T07:19:35;100691.38;;;-1.33;100.00
61900;BME280;47853;55.890;37.664;2023-01-25T07:22:00;100691.66;;;-1.18;100.00
61900;BME280;47853;55.890;37.664;2023-01-25T07:24:26;100692.50;;;-0.95;100.00
61900;BME280;47853;55.890;37.664;2023-01-25T07:26:51;100673.47;;;-1.20;100.00
61900;BME280;47853;55.890;37.664;2023-01-25T07:29:16;100659.84;;;-1.26;100.00
61900;BME280;47853;55.890;37.664;2023-01-25T07:31:42;100674.56;;;-1.25;100.00
61900;BME280;47853;55.890;37.664;2023-01-25T07:34:09;100684.69;;;-1.64;100.00
61900;BME280;47853;55.890;37.664;2023-01-25T07:36:35;100673.25;;;-1.83;100.00
61900;BME280;47853;55.890;37.664;2023-01-25T07:39:00;100664.69;;;-2.11;100.00
61900;BME280;47853;55.890;37.664;2023-01-25T07:41:26;100689.91;;;-1.87;100.00
61900;BME280;47853;55.890;37.664;2023-01-25T07:43:52;100692.59;;;-1.91;100.00
61900;BME280;47853;55.890;37.664;2023-01-25T07:46:18;100688.84;;;-1.82;100.00
61900;BME280;47853;55.890;37.664;2023-01-25T07:48:48;100675.84;;;-1.83;100.00
61900;BME280;47853;55.890;37.664;2023-01-25T07:51:15;100675.66;;;-2.02;100.00
61900;BME280;47853;55.890;37.664;2023-01-25T07:53:42;100670.53;;;-1.56;100.00
61900;BME280;47853;55.890;37.664;2023-01-25T07:56:09;100681.78;;;-1.32;100.00
61900;BME280;47853;55.890;37.664;2023-01-25T07:58:35;100693.06;;;-1.55;100.00
61900;BME280;47853;55.890;37.664;2023-01-25T08:01:08;100680.66;;;-1.72;100.00
61900;BME280;47853;55.890;37.664;2023-01-25T08:03:34;100684.41;;;-1.56;100.00
61900;BME280;47853;55.890;37.664;2023-01-25T08:05:59;100680.38;;;-2.12;100.00
61900;BME280;47853;55.890;37.664;2023-01-25T08:08:25;100679.09;;;-1.77;100.00
61900;BME280;47853;55.890;37.664;2023-01-25T08:10:50;100693.34;;;-1.63;100.00
61900;BME280;47853;55.890;37.664;2023-01-25T08:13:22;100703.25;;;-1.97;100.00
61900;BME280;47853;55.890;37.664;2023-01-25T08:15:54;100692.69;;;-1.92;100.00
61900;BME280;47853;55.890;37.664;2023-01-25T08:18:20;100690.41;;;-1.78;100.00
61900;BME280;47853;55.890;37.664;2023-01-25T08:20:45;100681.13;;;-1.85;100.00
61900;BME280;47853;55.890;37.664;2023-01-25T08:23:10;100694.38;;;-1.91;100.00
61900;BME280;47853;55.890;37.664;2023-01-25T08:25:36;100679.56;;;-1.89;100.00
61900;BME280;47853;55.890;37.664;2023-01-25T08:28:01;100685.31;;;-1.81;100.00
61900;BME280;47853;55.890;37.664;2023-01-25T08:30:26;100684.03;;;-1.69;100.00
61900;BME280;47853;55.890;37.664;2023-01-25T08:32:52;100676.50;;;-1.53;100.00
61900;BME280;47853;55.890;37.664;2023-01-25T08:35:17;100676.78;;;-1.61;100.00
61900;BME280;47853;55.890;37.664;2023-01-25T08:37:42;100668.06;;;-1.37;100.00
61900;BME280;47853;55.890;37.664;2023-01-25T08:40:08;100674.19;;;-0.94;100.00
61900;BME280;47853;55.890;37.664;2023-01-25T08:42:34;100680.00;;;-1.54;100.00
61900;BME280;47853;55.890;37.664;2023-01-25T08:44:59;100656.78;;;-1.38;100.00
61900;BME280;47853;55.890;37.664;2023-01-25T08:47:25;100664.25;;;-1.51;100.00
61900;BME280;47853;55.890;37.664;2023-01-25T08:49:50;100659.50;;;-1.41;100.00
61900;BME280;47853;55.890;37.664;2023-01-25T08:52:15;100654.94;;;-1.58;100.00
61900;BME280;47853;55.890;37.664;2023-01-25T08:54:41;100646.84;;;-1.50;100.00
61900;BME280;47853;55.890;37.664;2023-01-25T08:57:06;100641.63;;;-1.50;100.00
61900;BME280;47853;55.890;37.664;2023-01-25T08:59:31;100639.16;;;-1.31;100.00
61900;BME280;47853;55.890;37.664;2023-01-25T09:01:57;100638.00;;;-1.46;100.00
61900;BME280;47853;55.890;37.664;2023-01-25T09:04:22;100643.16;;;-1.00;100.00
61900;BME280;47853;55.890;37.664;2023-01-25T09:06:47;100634.91;;;-1.34;100.00
61900;BME280;47853;55.890;37.664;2023-01-25T09:09:13;100627.63;;;-1.70;100.00
61900;BME280;47853;55.890;37.664;2023-01-25T09:11:38;100627.88;;;-1.76;100.00
61900;BME280;47853;55.890;37.664;2023-01-25T09:14:03;100622.03;;;-1.83;100.00
61900;BME280;47853;55.890;37.664;2023-01-25T09:16:29;100601.31;;;-2.10;100.00
61900;BME280;47853;55.890;37.664;2023-01-25T09:18:56;100623.53;;;-1.77;100.00
61900;BME280;47853;55.890;37.664;2023-01-25T09:21:22;100624.31;;;-1.97;100.00
61900;BME280;47853;55.890;37.664;2023-01-25T09:23:50;100606.13;;;-1.75;100.00
61900;BME280;47853;55.890;37.664;2023-01-25T09:26:16;100610.94;;;-1.88;100.00
61900;BME280;47853;55.890;37.664;2023-01-25T09:28:46;100595.94;;;-2.05;100.00
61900;BME280;47853;55.890;37.664;2023-01-25T09:31:11;100605.50;;;-1.82;100.00
61900;BME280;47853;55.890;37.664;2023-01-25T09:33:38;100601.41;;;-2.13;100.00
61900;BME280;47853;55.890;37.664;2023-01-25T09:36:04;100590.34;;;-2.18;100.00
61900;BME280;47853;55.890;37.664;2023-01-25T09:38:30;100591.50;;;-2.27;100.00
61900;BME280;47853;55.890;37.664;2023-01-25T09:41:13;100584.56;;;-2.26;100.00
61900;BME280;47853;55.890;37.664;2023-01-25T09:43:49;100588.63;;;-2.19;100.00
61900;BME280;47853;55.890;37.664;2023-01-25T09:47:03;100581.22;;;-2.30;100.00
61900;BME280;47853;55.890;37.664;2023-01-25T09:49:35;100561.91;;;-2.00;100.00
61900;BME280;47853;55.890;37.664;2023-01-25T09:54:54;100551.50;;;-1.78;100.00
61900;BME280;47853;55.890;37.664;2023-01-25T09:57:37;100551.09;;;-1.90;100.00
61900;BME280;47853;55.890;37.664;2023-01-25T10:05:42;100549.78;;;-0.92;100.00
61900;BME280;47853;55.890;37.664;2023-01-25T10:10:43;100531.59;;;-1.57;100.00
61900;BME280;47853;55.890;37.664;2023-01-25T10:13:12;100536.22;;;-1.64;100.00
61900;BME280;47853;55.890;37.664;2023-01-25T10:15:50;100545.41;;;-1.55;100.00
61900;BME280;47853;55.890;37.664;2023-01-25T10:26:19;100556.69;;;-2.00;100.00
61900;BME280;47853;55.890;37.664;2023-01-25T10:29:18;100548.97;;;-2.02;100.00
61900;BME280;47853;55.890;37.664;2023-01-25T10:31:54;100546.75;;;-1.89;100.00
61900;BME280;47853;55.890;37.664;2023-01-25T10:34:49;100534.28;;;-2.05;100.00
61900;BME280;47853;55.890;37.664;2023-01-25T10:37:18;100529.78;;;-2.23;100.00
61900;BME280;47853;55.890;37.664;2023-01-25T10:40:20;100536.75;;;-2.24;100.00
61900;BME280;47853;55.890;37.664;2023-01-25T10:42:54;100532.03;;;-2.14;100.00
61900;BME280;47853;55.890;37.664;2023-01-25T10:45:22;100524.13;;;-2.11;100.00
61900;BME280;47853;55.890;37.664;2023-01-25T10:47:51;100511.50;;;-2.22;100.00
61900;BME280;47853;55.890;37.664;2023-01-25T10:50:41;100515.47;;;-2.11;100.00
61900;BME280;47853;55.890;37.664;2023-01-25T10:53:31;100505.31;;;-1.95;100.00
61900;BME280;47853;55.890;37.664;2023-01-25T10:58:40;100504.34;;;-1.93;100.00
61900;BME280;47853;55.890;37.664;2023-01-25T11:01:30;100507.81;;;-1.92;100.00
61900;BME280;47853;55.890;37.664;2023-01-25T11:03:57;100494.06;;;-1.96;100.00
61900;BME280;47853;55.890;37.664;2023-01-25T11:06:33;100456.19;;;-2.27;100.00
61900;BME280;47853;55.890;37.664;2023-01-25T11:08:59;100480.66;;;-2.09;100.00
61900;BME280;47853;55.890;37.664;2023-01-25T11:11:36;100491.00;;;-1.63;100.00
61900;BME280;47853;55.890;37.664;2023-01-25T11:14:09;100484.78;;;-1.81;100.00
61900;BME280;47853;55.890;37.664;2023-01-25T11:16:39;100482.66;;;-2.15;100.00
61900;BME280;47853;55.890;37.664;2023-01-25T11:19:29;100479.56;;;-2.25;100.00
61900;BME280;47853;55.890;37.664;2023-01-25T11:21:57;100481.31;;;-2.26;100.00
61900;BME280;47853;55.890;37.664;2023-01-25T11:24:28;100471.09;;;-2.30;100.00
61900;BME280;47853;55.890;37.664;2023-01-25T11:27:12;100462.50;;;-2.33;100.00
61900;BME280;47853;55.890;37.664;2023-01-25T11:29:38;100480.94;;;-2.39;100.00
61900;BME280;47853;55.890;37.664;2023-01-25T11:32:18;100477.09;;;-2.28;100.00
61900;BME280;47853;55.890;37.664;2023-01-25T11:34:44;100470.44;;;-2.13;100.00
61900;BME280;47853;55.890;37.664;2023-01-25T12:04:43;100465.78;;;-2.05;100.00
61900;BME280;47853;55.890;37.664;2023-01-25T12:10:11;100462.38;;;-2.53;100.00
61900;BME280;47853;55.890;37.664;2023-01-25T12:20:39;100455.06;;;-2.20;100.00
61900;BME280;47853;55.890;37.664;2023-01-25T12:28:53;100431.50;;;-2.39;100.00
61900;BME280;47853;55.890;37.664;2023-01-25T12:31:41;100422.47;;;-2.30;100.00
61900;BME280;47853;55.890;37.664;2023-01-25T12:34:16;100428.16;;;-2.42;100.00
61900;BME280;47853;55.890;37.664;2023-01-25T12:36:44;100436.16;;;-2.02;100.00
61900;BME280;47853;55.890;37.664;2023-01-25T12:42:24;100426.06;;;-2.33;100.00
61900;BME280;47853;55.890;37.664;2023-01-25T12:47:54;100425.50;;;-2.41;100.00
61900;BME280;47853;55.890;37.664;2023-01-25T12:50:33;100416.50;;;-2.32;100.00
61900;BME280;47853;55.890;37.664;2023-01-25T12:53:40;100420.13;;;-2.14;100.00
61900;BME280;47853;55.890;37.664;2023-01-25T12:56:09;100426.66;;;-2.04;100.00
61900;BME280;47853;55.890;37.664;2023-01-25T12:59:02;100418.00;;;-2.04;100.00
61900;BME280;47853;55.890;37.664;2023-01-25T13:01:48;100396.13;;;-2.21;100.00
61900;BME280;47853;55.890;37.664;2023-01-25T13:07:15;100416.25;;;-1.61;100.00
61900;BME280;47853;55.890;37.664;2023-01-25T13:12:21;100419.03;;;-1.86;100.00
61900;BME280;47853;55.890;37.664;2023-01-25T13:14:46;100402.00;;;-1.95;100.00
61900;BME280;47853;55.890;37.664;2023-01-25T13:17:32;100405.34;;;-1.91;100.00
61900;BME280;47853;55.890;37.664;2023-01-25T13:19:58;100409.44;;;-1.85;100.00
61900;BME280;47853;55.890;37.664;2023-01-25T13:25:19;100372.78;;;-2.24;100.00
61900;BME280;47853;55.890;37.664;2023-01-25T13:27:44;100380.53;;;-2.22;100.00
61900;BME280;47853;55.890;37.664;2023-01-25T13:30:29;100365.09;;;-2.05;100.00
61900;BME280;47853;55.890;37.664;2023-01-25T13:33:02;100355.97;;;-2.15;100.00
61900;BME280;47853;55.890;37.664;2023-01-25T13:35:35;100359.19;;;-2.30;100.00
61900;BME280;47853;55.890;37.664;2023-01-25T13:40:41;100343.06;;;-2.18;100.00
61900;BME280;47853;55.890;37.664;2023-01-25T13:43:20;100344.13;;;-2.01;100.00
61900;BME280;47853;55.890;37.664;2023-01-25T13:45:48;100334.84;;;-2.07;100.00
61900;BME280;47853;55.890;37.664;2023-01-25T13:48:17;100328.72;;;-2.06;100.00
61900;BME280;47853;55.890;37.664;2023-01-25T13:50:57;100338.63;;;-1.94;100.00
61900;BME280;47853;55.890;37.664;2023-01-25T13:53:25;100323.78;;;-1.92;100.00
61900;BME280;47853;55.890;37.664;2023-01-25T13:55:54;100323.06;;;-1.95;100.00
61900;BME280;47853;55.890;37.664;2023-01-25T13:58:28;100311.78;;;-1.96;100.00
61900;BME280;47853;55.890;37.664;2023-01-25T14:00:56;100324.16;;;-1.59;100.00
61900;BME280;47853;55.890;37.664;2023-01-25T14:03:31;100324.03;;;-2.19;100.00
61900;BME280;47853;55.890;37.664;2023-01-25T14:05:58;100302.97;;;-2.35;100.00
61900;BME280;47853;55.890;37.664;2023-01-25T14:08:25;100311.38;;;-2.28;100.00
61900;BME280;47853;55.890;37.664;2023-01-25T14:10:51;100319.22;;;-2.07;100.00
61900;BME280;47853;55.890;37.664;2023-01-25T14:13:17;100314.41;;;-2.16;100.00
61900;BME280;47853;55.890;37.664;2023-01-25T14:15:57;100329.09;;;-2.15;100.00
61900;BME280;47853;55.890;37.664;2023-01-25T14:18:33;100320.91;;;-2.06;100.00
61900;BME280;47853;55.890;37.664;2023-01-25T14:21:18;100318.09;;;-2.01;100.00